createdAt,value
2023-03-17T00:02:19.914Z,4.60
2023-03-17T00:04:54.816Z,4.50
2023-03-17T00:07:29.886Z,4.70
2023-03-17T00:10:08.617Z,5.33
2023-03-17T00:12:45.219Z,4.30
2023-03-17T00:15:22.535Z,4.90
2023-03-17T00:17:57.445Z,4.00
2023-03-17T00:20:33.261Z,4.23
2023-03-17T00:23:19.634Z,4.30
2023-03-17T00:25:54.531Z,4.57
2023-03-17T00:28:29.424Z,4.33
2023-03-17T00:31:15.349Z,5.20
2023-03-17T00:33:52.882Z,4.70
2023-03-17T00:36:32.142Z,4.10
2023-03-17T00:39:17.708Z,4.87
2023-03-17T00:41:52.595Z,4.87
2023-03-17T00:44:27.647Z,5.07
2023-03-17T00:47:02.801Z,4.90
2023-03-17T00:49:37.885Z,5.17
2023-03-17T00:52:13.100Z,5.30
2023-03-17T00:54:49.495Z,5.47
2023-03-17T00:57:24.605Z,5.30
2023-03-17T00:59:59.873Z,6.20
2023-03-17T01:02:35.529Z,5.80
2023-03-17T01:05:10.640Z,6.00
2023-03-17T01:07:52.741Z,6.10
2023-03-17T01:10:29.336Z,4.90
2023-03-17T01:13:05.916Z,4.70
2023-03-17T01:15:48.316Z,4.57
2023-03-17T01:18:24.100Z,4.13
2023-03-17T01:20:59.050Z,4.00
2023-03-17T01:23:34.087Z,4.00
2023-03-17T01:26:09.542Z,4.47
2023-03-17T01:28:45.133Z,4.17
2023-03-17T01:31:20.678Z,5.13
2023-03-17T01:33:55.638Z,4.70
2023-03-17T01:36:30.514Z,5.30
2023-03-17T01:39:05.462Z,5.00
2023-03-17T01:41:40.460Z,4.90
2023-03-17T01:44:18.380Z,4.90
2023-03-17T01:46:54.543Z,5.30
2023-03-17T01:49:38.171Z,4.90
2023-03-17T01:52:18.255Z,5.20
2023-03-17T01:55:05.358Z,4.87
2023-03-17T01:57:51.410Z,5.70
2023-03-17T02:00:26.561Z,4.90
2023-03-17T02:03:01.716Z,5.87
2023-03-17T02:05:38.342Z,5.17
2023-03-17T02:08:16.432Z,5.57
2023-03-17T02:10:52.327Z,5.37
2023-03-17T02:13:27.195Z,5.23
2023-03-17T02:16:02.179Z,5.07
2023-03-17T02:18:37.184Z,5.30
2023-03-17T02:21:45.246Z,5.60
2023-03-17T02:24:39.712Z,4.70
2023-03-17T02:27:39.714Z,5.77
2023-03-17T02:30:19.139Z,5.13
2023-03-17T02:32:54.598Z,5.10
2023-03-17T02:35:31.460Z,5.77
2023-03-17T02:38:06.797Z,5.80
2023-03-17T02:40:41.853Z,5.30
2023-03-17T02:43:16.897Z,5.00
2023-03-17T02:45:51.871Z,6.03
2023-03-17T02:48:27.243Z,5.30
2023-03-17T02:51:03.014Z,5.43
2023-03-17T02:53:37.906Z,5.27
2023-03-17T02:56:12.874Z,5.53
2023-03-17T02:58:47.751Z,5.83
2023-03-17T03:01:23.021Z,6.03
2023-03-17T03:03:58.673Z,4.83
2023-03-17T03:06:34.403Z,5.67
2023-03-17T03:09:11.746Z,5.10
2023-03-17T03:11:47.669Z,6.33
2023-03-17T03:14:24.176Z,5.80
2023-03-17T03:16:59.596Z,5.37
2023-03-17T03:19:34.690Z,5.43
2023-03-17T03:22:10.134Z,5.07
2023-03-17T03:24:45.483Z,5.60
2023-03-17T03:27:20.380Z,6.00
2023-03-17T03:29:55.590Z,5.40
2023-03-17T03:32:30.531Z,6.30
2023-03-17T03:35:06.078Z,6.40
2023-03-17T03:37:41.026Z,6.53
2023-03-17T03:40:16.115Z,6.13
2023-03-17T03:42:51.114Z,7.67
2023-03-17T03:45:26.968Z,6.10
2023-03-17T03:48:01.967Z,6.27
2023-03-17T03:50:37.203Z,5.87
2023-03-17T03:53:12.358Z,6.40
2023-03-17T03:55:47.348Z,5.10
2023-03-17T03:58:22.976Z,6.60
2023-03-17T04:00:57.988Z,6.40
2023-03-17T04:03:33.085Z,5.90
2023-03-17T04:06:08.047Z,5.43
2023-03-17T04:08:43.101Z,5.40
2023-03-17T04:11:18.345Z,6.27
2023-03-17T04:13:53.247Z,5.80
2023-03-17T04:16:28.310Z,4.87
2023-03-17T04:19:03.717Z,5.03
2023-03-17T04:21:38.732Z,5.70
2023-03-17T04:24:14.818Z,7.03
2023-03-17T04:26:49.858Z,5.87
2023-03-17T04:29:24.840Z,6.03
2023-03-17T04:31:59.768Z,6.37
2023-03-17T04:34:34.697Z,6.47
2023-03-17T04:37:11.246Z,6.97
2023-03-17T04:39:47.417Z,5.50
2023-03-17T04:42:25.302Z,5.70
2023-03-17T04:45:00.220Z,6.33
2023-03-17T04:47:35.907Z,6.07
2023-03-17T04:50:13.915Z,6.20
2023-03-17T04:52:48.913Z,6.33
2023-03-17T04:55:23.813Z,6.03
2023-03-17T04:57:58.786Z,6.50
2023-03-17T05:00:38.680Z,7.23
2023-03-17T05:03:26.123Z,6.17
2023-03-17T05:06:05.275Z,6.90
2023-03-17T05:08:40.335Z,6.50
2023-03-17T05:11:15.906Z,5.70
2023-03-17T05:13:50.916Z,5.47
2023-03-17T05:16:26.071Z,5.90
2023-03-17T05:19:01.032Z,5.87
2023-03-17T05:21:35.948Z,6.63
2023-03-17T05:24:11.591Z,6.70
2023-03-17T05:26:46.655Z,6.13
2023-03-17T05:29:21.698Z,6.30
2023-03-17T05:31:56.578Z,6.37
2023-03-17T05:34:32.123Z,6.27
2023-03-17T05:37:07.622Z,5.87
2023-03-17T05:39:42.632Z,6.30
2023-03-17T05:42:18.231Z,6.67
2023-03-17T05:44:53.419Z,6.57
2023-03-17T05:47:28.473Z,5.53
2023-03-17T05:50:05.625Z,6.03
2023-03-17T05:52:40.656Z,5.03
2023-03-17T05:55:16.094Z,6.20
2023-03-17T05:57:51.435Z,6.93
2023-03-17T06:00:26.988Z,6.80
2023-03-17T06:03:03.880Z,6.00
2023-03-17T06:05:39.480Z,6.23
2023-03-17T06:08:15.104Z,6.67
2023-03-17T06:10:50.313Z,6.77
2023-03-17T06:13:25.734Z,6.17
2023-03-17T06:16:00.813Z,7.20
2023-03-17T06:18:36.734Z,6.50
2023-03-17T06:21:13.158Z,6.57
2023-03-17T06:23:48.194Z,6.67
2023-03-17T06:26:23.166Z,7.73
2023-03-17T06:28:58.215Z,7.40
2023-03-17T06:31:33.288Z,6.80
2023-03-17T06:34:08.470Z,7.00
2023-03-17T06:36:44.069Z,6.70
2023-03-17T06:39:19.177Z,8.03
2023-03-17T06:41:54.300Z,6.40
2023-03-17T06:44:29.389Z,7.43
2023-03-17T06:47:04.836Z,7.47
2023-03-17T06:49:39.957Z,7.13
2023-03-17T06:52:15.034Z,7.20
2023-03-17T06:54:50.277Z,6.63
2023-03-17T06:57:26.348Z,6.97
2023-03-17T07:00:01.464Z,6.57
2023-03-17T07:02:36.604Z,6.97
2023-03-17T07:05:13.959Z,6.80
2023-03-17T07:07:49.699Z,7.40
2023-03-17T07:10:25.549Z,6.77
2023-03-17T07:13:00.565Z,7.63
2023-03-17T07:15:38.790Z,6.93
2023-03-17T07:18:17.065Z,6.70
2023-03-17T07:21:38.417Z,6.07
2023-03-17T07:24:13.667Z,6.07
2023-03-17T07:26:49.144Z,5.70
2023-03-17T07:29:24.347Z,5.93
2023-03-17T07:31:59.318Z,6.47
2023-03-17T07:34:35.712Z,4.60
2023-03-17T07:37:12.111Z,4.60
2023-03-17T07:39:48.461Z,5.00
2023-03-17T07:42:23.412Z,6.07
2023-03-17T07:44:58.422Z,5.63
2023-03-17T07:47:33.398Z,5.57
2023-03-17T07:50:09.692Z,5.40
2023-03-17T07:52:44.693Z,5.27
2023-03-17T07:55:19.641Z,5.50
2023-03-17T07:57:54.552Z,4.90
2023-03-17T08:00:30.043Z,5.47
2023-03-17T08:03:10.354Z,5.13
2023-03-17T08:05:47.075Z,5.60
2023-03-17T08:08:23.887Z,5.70
2023-03-17T08:11:03.746Z,5.00
2023-03-17T08:13:39.064Z,4.70
2023-03-17T08:16:14.161Z,5.47
2023-03-17T08:18:52.487Z,4.83
2023-03-17T08:21:29.363Z,5.27
2023-03-17T08:24:09.895Z,5.93
2023-03-17T08:26:49.323Z,6.33
2023-03-17T08:29:25.512Z,4.70
2023-03-17T08:32:00.521Z,4.97
2023-03-17T08:34:36.273Z,4.80
2023-03-17T08:37:11.606Z,4.80
2023-03-17T08:39:47.051Z,3.57
2023-03-17T08:42:22.378Z,5.20
2023-03-17T08:44:57.718Z,5.30
2023-03-17T08:47:35.032Z,4.90
2023-03-17T08:50:18.244Z,4.83
2023-03-17T08:52:54.232Z,4.40
2023-03-17T08:55:29.726Z,4.00
2023-03-17T08:58:05.392Z,4.03
2023-03-17T09:00:40.817Z,3.50
2023-03-17T09:03:16.446Z,3.30
2023-03-17T09:05:51.995Z,3.17
2023-03-17T09:08:27.954Z,3.50
2023-03-17T09:11:05.383Z,2.80
2023-03-17T09:13:41.405Z,2.80
2023-03-17T09:16:18.154Z,2.87
2023-03-17T09:18:53.597Z,2.87
2023-03-17T09:21:28.623Z,2.57
2023-03-17T09:24:04.701Z,2.77
2023-03-17T09:26:41.072Z,2.50
2023-03-17T09:29:16.052Z,2.70
2023-03-17T09:31:51.505Z,3.10
2023-03-17T09:34:27.009Z,3.10
2023-03-17T09:37:02.900Z,2.87
2023-03-17T09:39:37.885Z,3.13
2023-03-17T09:42:40.693Z,2.43
2023-03-17T09:45:29.669Z,2.60
2023-03-17T09:48:33.559Z,2.80
2023-03-17T09:51:14.501Z,2.10
2023-03-17T09:54:04.145Z,2.93
2023-03-17T09:56:46.798Z,3.40
2023-03-17T09:59:33.408Z,3.00
2023-03-17T10:02:31.582Z,2.73
2023-03-17T10:05:27.929Z,3.70
2023-03-17T10:08:30.741Z,3.20
2023-03-17T10:11:32.677Z,2.47
2023-03-17T10:14:31.373Z,2.20
2023-03-17T10:17:22.154Z,1.70
2023-03-17T10:20:19.238Z,2.93
2023-03-17T10:23:01.683Z,2.33
2023-03-17T10:25:37.378Z,1.80
2023-03-17T10:28:18.101Z,1.70
2023-03-17T10:30:53.889Z,1.70
2023-03-17T10:33:29.114Z,1.90
2023-03-17T10:36:09.598Z,1.30
2023-03-17T10:38:55.179Z,1.30
2023-03-17T10:41:32.756Z,1.43
2023-03-17T10:44:55.056Z,1.40
2023-03-17T10:47:38.142Z,1.40
2023-03-17T10:50:32.482Z,1.60
2023-03-17T10:53:18.301Z,1.20
2023-03-17T10:55:57.946Z,1.30
2023-03-17T10:58:43.396Z,1.13
2023-03-17T11:01:27.861Z,1.20
2023-03-17T11:04:03.918Z,1.30
2023-03-17T11:06:43.845Z,1.27
2023-03-17T11:09:21.458Z,1.40
2023-03-17T11:12:08.832Z,1.30
2023-03-17T11:14:44.340Z,1.30
2023-03-17T11:17:37.838Z,1.10
2023-03-17T11:20:34.919Z,1.30
2023-03-17T11:23:52.898Z,1.37
2023-03-17T11:27:01.277Z,1.30
2023-03-17T11:30:01.529Z,1.00
2023-03-17T11:32:41.987Z,1.30
2023-03-17T11:35:48.319Z,1.20
2023-03-17T11:38:30.265Z,1.37
2023-03-17T11:41:26.161Z,1.20
2023-03-17T11:44:32.880Z,1.20
2023-03-17T11:47:41.923Z,1.00
2023-03-17T11:50:30.856Z,0.97
2023-03-17T11:53:45.439Z,1.40
2023-03-17T11:56:30.756Z,1.43
2023-03-17T11:59:16.134Z,1.23
2023-03-17T12:02:04.771Z,1.30
2023-03-17T12:05:10.046Z,1.30
2023-03-17T12:07:53.256Z,0.90
2023-03-17T12:10:40.613Z,1.40
2023-03-17T12:13:28.053Z,1.00
2023-03-17T12:16:10.825Z,1.30
2023-03-17T12:19:11.373Z,1.00
2023-03-17T12:22:02.745Z,1.00
2023-03-17T12:25:25.694Z,1.03
2023-03-17T12:28:11.817Z,1.10
2023-03-17T12:30:54.322Z,1.10
2023-03-17T12:33:46.422Z,1.00
2023-03-17T12:36:21.908Z,0.90
2023-03-17T12:39:02.143Z,1.00
2023-03-17T12:41:57.497Z,1.00
2023-03-17T12:44:53.660Z,1.13
2023-03-17T12:47:52.133Z,0.90
2023-03-17T12:51:06.744Z,1.27
2023-03-17T12:53:47.773Z,1.30
2023-03-17T12:56:34.404Z,1.20
2023-03-17T12:59:26.032Z,1.33
2023-03-17T13:02:27.780Z,1.90
2023-03-17T13:05:09.140Z,2.67
2023-03-17T13:07:53.794Z,1.50
2023-03-17T13:10:48.796Z,1.90
2023-03-17T13:13:55.395Z,1.60
2023-03-17T13:16:37.227Z,0.97
2023-03-17T13:19:23.298Z,1.10
2023-03-17T13:22:21.317Z,1.03
2023-03-17T13:25:35.968Z,1.20
2023-03-17T13:28:13.868Z,1.37
2023-03-17T13:30:56.978Z,1.73
2023-03-17T13:33:32.519Z,1.70
2023-03-17T13:36:25.506Z,1.20
2023-03-17T13:39:49.471Z,1.20
2023-03-17T13:43:09.450Z,0.90
2023-03-17T13:45:46.584Z,0.93
2023-03-17T13:48:29.352Z,1.20
2023-03-17T13:51:27.456Z,1.00
2023-03-17T13:54:30.571Z,1.17
2023-03-17T13:57:26.435Z,1.07
2023-03-17T14:00:14.773Z,1.10
2023-03-17T14:03:06.159Z,1.10
2023-03-17T14:05:43.010Z,0.97
2023-03-17T14:08:35.852Z,1.07
2023-03-17T14:11:32.761Z,0.80
2023-03-17T14:14:38.378Z,1.00
2023-03-17T14:17:44.937Z,1.30
2023-03-17T14:20:23.244Z,1.40
2023-03-17T14:23:03.794Z,1.40
2023-03-17T14:25:40.018Z,1.00
2023-03-17T14:28:19.625Z,1.00
2023-03-17T14:31:00.466Z,1.00
2023-03-17T14:33:41.238Z,1.10
2023-03-17T14:36:16.224Z,0.97
2023-03-17T14:38:54.486Z,1.57
2023-03-17T14:41:30.725Z,1.10
2023-03-17T14:44:09.438Z,1.10
2023-03-17T14:46:44.402Z,1.17
2023-03-17T14:49:21.076Z,0.93
2023-03-17T14:51:58.259Z,1.03
2023-03-17T14:54:35.361Z,1.30
2023-03-17T14:57:15.762Z,1.17
2023-03-17T15:00:01.669Z,2.07
2023-03-17T15:02:38.249Z,1.40
2023-03-17T15:05:38.017Z,1.30
2023-03-17T15:08:34.459Z,1.37
2023-03-17T15:11:26.863Z,1.00
2023-03-17T15:14:27.731Z,1.17
2023-03-17T15:17:07.016Z,1.40
2023-03-17T15:19:48.778Z,1.30
2023-03-17T15:22:34.489Z,0.97
2023-03-17T15:25:27.844Z,1.00
2023-03-17T15:28:19.334Z,1.00
2023-03-17T15:30:59.487Z,1.60
2023-03-17T15:33:37.487Z,1.80
2023-03-17T15:36:31.330Z,1.50
2023-03-17T15:39:09.454Z,1.20
2023-03-17T15:41:44.339Z,1.00
2023-03-17T15:44:19.324Z,1.20
2023-03-17T15:46:54.658Z,1.23
2023-03-17T15:49:30.342Z,1.40
2023-03-17T15:52:21.582Z,1.10
2023-03-17T15:54:59.180Z,2.23
2023-03-17T15:57:34.070Z,2.03
2023-03-17T16:00:14.605Z,1.50
2023-03-17T16:02:56.239Z,1.50
2023-03-17T16:05:33.211Z,1.40
2023-03-17T16:08:14.887Z,1.40
2023-03-17T16:10:49.903Z,1.20
2023-03-17T16:13:24.860Z,1.30
2023-03-17T16:16:05.287Z,1.47
2023-03-17T16:18:41.711Z,1.30
2023-03-17T16:21:17.032Z,1.40
2023-03-17T16:23:52.178Z,2.00
2023-03-17T16:26:28.609Z,1.60
2023-03-17T16:29:13.937Z,1.50
2023-03-17T16:31:50.866Z,1.53
2023-03-17T16:34:26.133Z,1.50
2023-03-17T16:37:01.013Z,1.80
2023-03-17T16:39:36.150Z,1.70
2023-03-17T16:42:24.138Z,2.50
2023-03-17T16:44:59.106Z,1.70
2023-03-17T16:47:34.319Z,1.80
2023-03-17T16:50:19.594Z,1.77
2023-03-17T16:52:54.642Z,2.40
2023-03-17T16:55:30.131Z,2.10
2023-03-17T16:58:24.786Z,1.70
2023-03-17T17:01:04.017Z,2.90
2023-03-17T17:03:38.895Z,3.10
2023-03-17T17:06:14.462Z,2.83
2023-03-17T17:08:50.855Z,2.60
2023-03-17T17:11:25.747Z,2.10
2023-03-17T17:14:00.740Z,2.03
2023-03-17T17:16:37.383Z,2.87
2023-03-17T17:19:16.917Z,1.80
2023-03-17T17:21:51.804Z,1.80
2023-03-17T17:24:27.605Z,2.30
2023-03-17T17:27:02.521Z,2.10
2023-03-17T17:29:37.622Z,1.80
2023-03-17T17:32:13.304Z,2.20
2023-03-17T17:34:48.218Z,2.20
2023-03-17T17:37:23.489Z,1.93
2023-03-17T17:39:58.989Z,1.77
2023-03-17T17:42:34.590Z,1.40
2023-03-17T17:45:10.664Z,1.50
2023-03-17T17:47:46.095Z,1.50
2023-03-17T17:50:27.928Z,1.80
2023-03-17T17:53:08.478Z,1.80
2023-03-17T17:55:45.722Z,1.53
2023-03-17T17:58:24.375Z,1.67
2023-03-17T18:00:59.797Z,1.83
2023-03-17T18:03:34.807Z,2.13
2023-03-17T18:06:10.119Z,2.10
2023-03-17T18:08:45.436Z,2.73
2023-03-17T18:11:20.547Z,2.47
2023-03-17T18:13:55.509Z,2.40
2023-03-17T18:16:30.417Z,1.90
2023-03-17T18:19:08.937Z,2.23
2023-03-17T18:21:44.505Z,2.30
2023-03-17T18:24:19.514Z,2.90
2023-03-17T18:26:54.555Z,2.00
2023-03-17T18:29:29.683Z,2.33
2023-03-17T18:32:05.989Z,1.77
2023-03-17T18:34:46.549Z,2.80
2023-03-17T18:37:21.878Z,2.50
2023-03-17T18:40:12.235Z,2.80
2023-03-17T18:42:48.668Z,3.27
2023-03-17T18:45:23.741Z,2.50
2023-03-17T18:47:58.734Z,2.53
2023-03-17T18:50:34.653Z,2.43
2023-03-17T18:53:09.564Z,2.63
2023-03-17T18:55:44.537Z,2.47
2023-03-17T18:58:19.950Z,3.10
2023-03-17T19:01:02.352Z,5.27
2023-03-17T19:03:37.311Z,6.50
2023-03-17T19:06:16.880Z,8.80
2023-03-17T19:08:51.725Z,7.30
2023-03-17T19:11:26.675Z,6.20
2023-03-17T19:14:02.050Z,5.67
2023-03-17T19:16:36.992Z,5.93
2023-03-17T19:19:11.950Z,5.73
2023-03-17T19:21:46.814Z,6.47
2023-03-17T19:24:22.109Z,5.63
2023-03-17T19:26:57.325Z,7.30
2023-03-17T19:29:33.377Z,6.67
2023-03-17T19:32:09.233Z,5.70
2023-03-17T19:34:44.266Z,5.60
2023-03-17T19:37:19.465Z,5.23
2023-03-17T19:39:54.417Z,4.90
2023-03-17T19:42:29.794Z,5.77
2023-03-17T19:45:06.034Z,6.23
2023-03-17T19:47:41.109Z,6.70
2023-03-17T19:50:16.334Z,6.23
2023-03-17T19:52:53.092Z,6.17
2023-03-17T19:55:29.608Z,6.20
2023-03-17T19:58:05.811Z,7.03
2023-03-17T20:00:44.176Z,7.20
2023-03-17T20:03:19.357Z,7.20
2023-03-17T20:05:54.501Z,5.73
2023-03-17T20:08:29.402Z,6.37
2023-03-17T20:11:06.006Z,6.40
2023-03-17T20:13:41.258Z,7.13
2023-03-17T20:16:17.294Z,6.90
2023-03-17T20:18:52.925Z,7.23
2023-03-17T20:21:28.209Z,7.87
2023-03-17T20:24:03.557Z,8.20
2023-03-17T20:26:39.774Z,7.03
2023-03-17T20:29:16.079Z,6.83
2023-03-17T20:31:51.588Z,7.50
2023-03-17T20:34:26.956Z,5.97
2023-03-17T20:37:02.776Z,6.80
2023-03-17T20:39:38.276Z,7.17
2023-03-17T20:42:14.750Z,8.37
2023-03-17T20:44:52.857Z,8.63
2023-03-17T20:47:28.270Z,8.80
2023-03-17T20:50:06.241Z,7.10
2023-03-17T20:52:41.933Z,7.67
2023-03-17T20:55:19.706Z,7.47
2023-03-17T20:57:54.768Z,6.73
2023-03-17T21:00:32.250Z,6.63
2023-03-17T21:03:09.877Z,6.70
2023-03-17T21:05:45.761Z,6.77
2023-03-17T21:08:21.081Z,6.30
2023-03-17T21:10:55.977Z,11.97
2023-03-17T21:13:32.848Z,11.67
2023-03-17T21:16:08.524Z,9.47
2023-03-17T21:18:43.430Z,7.07
2023-03-17T21:21:19.338Z,8.30
2023-03-17T21:23:55.342Z,7.20
2023-03-17T21:26:30.309Z,6.77
2023-03-17T21:29:05.221Z,7.57
2023-03-17T21:31:40.173Z,7.30
2023-03-17T21:34:15.104Z,6.30
2023-03-17T21:36:53.858Z,5.00
2023-03-17T21:39:29.805Z,5.07
2023-03-17T21:42:05.476Z,3.93
2023-03-17T21:44:40.919Z,4.83
2023-03-17T21:47:16.488Z,3.90
2023-03-17T21:49:51.822Z,4.30
2023-03-17T21:52:27.003Z,4.50
2023-03-17T21:55:02.141Z,5.37
2023-03-17T21:57:37.763Z,6.10
2023-03-17T22:00:13.522Z,6.30
2023-03-17T22:02:50.069Z,8.40
2023-03-17T22:05:25.094Z,8.37
2023-03-17T22:08:00.479Z,7.17
2023-03-17T22:10:35.336Z,8.03
2023-03-17T22:13:10.372Z,7.40
2023-03-17T22:15:45.784Z,7.17
2023-03-17T22:18:21.124Z,8.20
2023-03-17T22:20:57.779Z,8.47
2023-03-17T22:23:39.620Z,9.50
2023-03-17T22:26:17.884Z,9.70
2023-03-17T22:28:53.130Z,9.27
2023-03-17T22:31:29.683Z,8.13
2023-03-17T22:34:04.647Z,9.00
2023-03-17T22:36:39.668Z,9.50
2023-03-17T22:39:14.584Z,7.90
2023-03-17T22:41:49.506Z,9.60
2023-03-17T22:44:24.392Z,9.07
2023-03-17T22:46:59.301Z,10.10
2023-03-17T22:49:34.373Z,8.87
2023-03-17T22:52:09.429Z,9.30
2023-03-17T22:54:44.343Z,8.63
2023-03-17T22:57:19.198Z,7.70
2023-03-17T22:59:56.993Z,7.50
2023-03-17T23:02:31.983Z,7.40
2023-03-17T23:05:08.746Z,8.43
2023-03-17T23:07:51.753Z,8.13
2023-03-17T23:10:28.462Z,7.57
2023-03-17T23:13:03.826Z,8.00
2023-03-17T23:15:39.062Z,7.80
2023-03-17T23:18:14.043Z,7.20
2023-03-17T23:20:50.242Z,7.87
2023-03-17T23:23:25.189Z,6.87
2023-03-17T23:26:00.252Z,7.40
2023-03-17T23:28:35.193Z,7.77
2023-03-17T23:31:11.050Z,7.07
2023-03-17T23:33:47.506Z,7.53
2023-03-17T23:36:22.439Z,8.90
2023-03-17T23:38:57.346Z,8.60
2023-03-17T23:41:32.247Z,8.03
2023-03-17T23:44:08.717Z,8.13
2023-03-17T23:46:45.047Z,8.00
2023-03-17T23:49:19.980Z,8.03
2023-03-17T23:51:54.870Z,7.53
2023-03-17T23:54:29.779Z,8.70
2023-03-17T23:57:05.314Z,8.37
2023-03-17T23:59:40.403Z,5.63
